Time;durP1;ratioP1;P1;durP2;ratioP2;P2;SDS_P1;SDS_P2;PMS_P1;PMS_P2;Temp;Humidity;BMP_temperature;BMP_pressure;BME280_temperature;BME280_humidity;BME280_pressure;Samples;Min_cycle;Max_cycle;Signal;HPM_P1;HPM_P2
2023/01/16 00:02:04;;;;;;;0.82;0.50;;;;;;;19.03;50.07;97889.09;5025785;28;20049;-28
2023/01/16 00:04:29;;;;;;;0.70;0.60;;;;;;;19.01;49.64;97887.81;5026314;28;20443;-29
2023/01/16 00:06:55;;;;;;;0.82;0.50;;;;;;;19.01;50.05;97875.06;5025225;28;20025;-31
2023/01/16 00:09:21;;;;;;;0.38;0.30;;;;;;;19.01;50.09;97880.47;5024066;28;20021;-28
2023/01/16 00:11:46;;;;;;;0.57;0.40;;;;;;;19.02;49.90;97871.25;5024026;28;20021;-30
2023/01/16 00:14:12;;;;;;;1.13;0.60;;;;;;;19.02;49.88;97867.75;5026129;28;20384;-29
2023/01/16 00:16:38;;;;;;;0.65;0.50;;;;;;;19.06;49.85;97866.84;5025236;28;20033;-29
2023/01/16 00:19:03;;;;;;;0.73;0.50;;;;;;;19.02;49.82;97870.44;5025847;28;20025;-32
2023/01/16 00:21:29;;;;;;;0.70;0.50;;;;;;;19.04;49.77;97862.81;5025042;28;20465;-31
2023/01/16 00:23:56;;;;;;;1.52;0.60;;;;;;;19.03;49.80;97855.81;5026039;28;20025;-31
2023/01/16 00:26:22;;;;;;;0.85;0.50;;;;;;;19.05;49.94;97859.81;5007557;28;20120;-27
2023/01/16 00:28:48;;;;;;;1.33;0.52;;;;;;;18.99;49.26;97854.81;5017200;28;20041;-29
2023/01/16 00:31:13;;;;;;;1.45;0.60;;;;;;;19.03;49.93;97851.19;5024270;28;20057;-30
2023/01/16 00:33:39;;;;;;;0.40;0.40;;;;;;;19.05;49.93;97838.16;5025560;28;20029;-28
2023/01/16 00:36:05;;;;;;;1.00;0.60;;;;;;;19.04;50.02;97843.88;5024960;28;20041;-31
2023/01/16 00:38:32;;;;;;;0.70;0.50;;;;;;;19.07;50.05;97844.06;5026032;28;20030;-30
2023/01/16 00:40:58;;;;;;;0.85;0.60;;;;;;;19.03;50.03;97837.66;5025623;28;20037;-28
2023/01/16 00:43:23;;;;;;;0.47;0.35;;;;;;;19.03;49.99;97839.56;5024563;28;20392;-31
2023/01/16 00:45:49;;;;;;;1.17;0.68;;;;;;;19.04;49.89;97835.75;5024953;28;20371;-32
2023/01/16 00:48:15;;;;;;;1.02;0.60;;;;;;;19.05;50.00;97848.19;5025968;28;20067;-29
2023/01/16 00:50:41;;;;;;;1.25;0.57;;;;;;;19.06;49.84;97844.38;5025008;28;20037;-30
2023/01/16 00:53:07;;;;;;;0.50;0.40;;;;;;;19.04;49.86;97839.28;5023314;28;20029;-28
2023/01/16 00:55:33;;;;;;;1.15;0.63;;;;;;;19.05;49.82;97840.06;5025513;28;20076;-31
2023/01/16 00:57:59;;;;;;;0.52;0.40;;;;;;;19.05;49.82;97832.75;5025512;28;20041;-33
2023/01/16 01:00:25;;;;;;;0.55;0.40;;;;;;;19.04;49.61;97825.75;5007609;28;20022;-28
2023/01/16 01:02:51;;;;;;;0.50;0.50;;;;;;;19.02;49.58;97825.22;5025237;28;20451;-29
2023/01/16 01:05:17;;;;;;;1.17;0.55;;;;;;;18.99;49.80;97833.16;5024531;28;20021;-30
2023/01/16 01:07:42;;;;;;;0.75;0.50;;;;;;;19.03;49.86;97826.03;5025362;28;20017;-29
2023/01/16 01:10:09;;;;;;;1.10;0.50;;;;;;;19.04;49.92;97819.50;5025721;28;20025;-32
2023/01/16 01:12:35;;;;;;;0.68;0.45;;;;;;;19.00;49.84;97823.94;5025391;28;20037;-31
2023/01/16 01:15:00;;;;;;;0.98;0.52;;;;;;;19.05;49.94;97811.09;5025333;28;20036;-31
2023/01/16 01:17:26;;;;;;;1.60;0.50;;;;;;;19.05;49.91;97823.81;5024922;28;20041;-28
2023/01/16 01:19:51;;;;;;;0.65;0.50;;;;;;;19.04;49.83;97820.31;5025413;28;20400;-28
2023/01/16 01:22:17;;;;;;;0.93;0.60;;;;;;;19.02;49.24;97817.09;5022540;28;20036;-29
2023/01/16 01:24:44;;;;;;;0.50;0.40;;;;;;;19.03;49.35;97813.31;5024467;28;20031;-31
2023/01/16 01:27:10;;;;;;;0.50;0.50;;;;;;;19.06;49.72;97806.50;5024116;28;20036;-27
2023/01/16 01:29:35;;;;;;;0.90;0.60;;;;;;;18.95;48.73;97808.59;5025365;28;20037;-30
2023/01/16 01:32:02;;;;;;;0.63;0.40;;;;;;;19.04;49.70;97808.69;5024683;28;20048;-31
2023/01/16 01:34:31;;;;;;;0.82;0.50;;;;;;;19.05;49.70;97810.28;5007313;28;20055;-29
2023/01/16 01:36:56;;;;;;;0.60;0.45;;;;;;;19.05;49.98;97815.72;5024054;28;20021;-29
2023/01/16 01:39:22;;;;;;;0.60;0.40;;;;;;;19.06;49.88;97811.91;5024667;28;20564;-30
2023/01/16 01:41:48;;;;;;;1.48;0.40;;;;;;;19.09;49.83;97803.16;5024721;28;20035;-32
2023/01/16 01:44:51;;;;;;;1.90;0.60;;;;;;;19.07;49.17;97808.06;5023965;28;20029;-32
2023/01/16 01:47:17;;;;;;;0.95;0.60;;;;;;;19.06;49.86;97811.91;5022748;28;20116;-29
2023/01/16 01:49:42;;;;;;;0.85;0.57;;;;;;;19.04;49.72;97814.09;5007259;28;20299;-30
2023/01/16 01:52:08;;;;;;;2.10;0.70;;;;;;;19.05;49.97;97810.28;5024975;28;20040;-30
2023/01/16 01:55:02;;;;;;;0.93;0.60;;;;;;;19.06;49.27;97815.41;5024460;28;20034;-29
2023/01/16 01:57:30;;;;;;;0.75;0.68;;;;;;;19.01;49.74;97804.69;5021175;28;20045;-29
2023/01/16 02:00:03;;;;;;;2.08;0.60;;;;;;;19.04;49.41;97809.50;5024561;28;20028;-31
2023/01/16 02:02:33;;;;;;;1.17;0.60;;;;;;;19.02;49.41;97795.44;5006584;28;20140;-29
2023/01/16 02:04:59;;;;;;;1.08;0.57;;;;;;;19.06;49.65;97792.97;5023764;28;20021;-31
2023/01/16 02:07:26;;;;;;;1.00;0.50;;;;;;;19.07;49.55;97775.59;5005099;28;20885;-28
2023/01/16 02:10:00;;;;;;;1.38;0.50;;;;;;;18.95;49.20;97778.84;5023725;28;20029;-27
2023/01/16 02:12:25;;;;;;;0.50;0.43;;;;;;;19.02;49.34;97775.72;5006235;28;20504;-30
2023/01/16 02:14:51;;;;;;;0.80;0.50;;;;;;;19.05;49.52;97780.53;5006235;28;20363;-29
2023/01/16 02:20:08;;;;;;;0.77;0.50;;;;;;;19.04;49.40;97776.19;5023704;28;20031;-30
2023/01/16 02:22:55;;;;;;;1.10;0.60;;;;;;;19.05;49.55;97772.41;5021596;28;20479;-29
2023/01/16 02:25:46;;;;;;;0.63;0.50;;;;;;;19.04;49.62;97766.19;5022644;28;20328;-28
2023/01/16 02:28:20;;;;;;;1.42;0.68;;;;;;;19.06;49.55;97768.59;5022770;28;20044;-30
2023/01/16 02:31:07;;;;;;;0.65;0.50;;;;;;;19.01;49.58;97779.53;5023929;28;20030;-29
2023/01/16 02:34:01;;;;;;;1.92;0.93;;;;;;;18.98;48.93;97774.75;5023736;28;20488;-28
2023/01/16 02:36:56;;;;;;;1.93;0.80;;;;;;;19.03;48.97;97755.66;5023826;28;20124;-28
2023/01/16 02:39:25;;;;;;;;;;;;;;;19.00;49.57;97743.53;5015568;28;20045;-29
2023/01/16 02:42:12;;;;;;;0.68;0.57;;;;;;;19.02;49.66;97745.94;5005885;28;20292;-29
2023/01/16 02:44:44;;;;;;;1.38;0.70;;;;;;;18.97;48.91;97746.06;4997019;28;20041;-30
2023/01/16 02:47:12;;;;;;;0.85;0.50;;;;;;;19.06;49.46;97744.25;5023177;28;20033;-29
2023/01/16 02:50:05;;;;;;;0.90;0.50;;;;;;;19.05;49.12;97739.91;5023678;28;20057;-31
2023/01/16 02:52:35;;;;;;;0.90;0.50;;;;;;;19.03;49.51;97737.50;5012197;28;20037;-30
2023/01/16 02:55:09;;;;;;;0.82;0.60;;;;;;;18.96;48.44;97734.44;5006053;28;20047;-33
2023/01/16 02:57:39;;;;;;;1.33;0.50;;;;;;;19.02;49.30;97735.13;5023033;28;20041;-28
2023/01/16 03:00:05;;;;;;;1.10;0.70;;;;;;;19.01;49.09;97728.13;5005739;28;20041;-29
2023/01/16 03:02:31;;;;;;;0.90;0.65;;;;;;;19.01;48.89;97711.88;5023671;28;20038;-31
2023/01/16 03:04:57;;;;;;;1.38;0.68;;;;;;;18.99;49.18;97727.59;5023679;28;20116;-32
2023/01/16 03:07:41;;;;;;;1.23;0.60;;;;;;;18.98;49.10;97728.72;5022613;28;20578;-27
2023/01/16 03:10:14;;;;;;;1.35;0.60;;;;;;;19.00;49.12;97726.50;5026627;28;20029;-30
2023/01/16 03:12:45;;;;;;;0.50;0.50;;;;;;;19.01;49.35;97714.59;5008920;28;20061;-31
2023/01/16 03:15:34;;;;;;;0.68;0.50;;;;;;;19.02;49.35;97727.00;5024741;28;20251;-29
2023/01/16 03:18:12;;;;;;;1.52;0.80;;;;;;;18.98;48.91;97726.81;5025206;28;20044;-30
2023/01/16 03:20:50;;;;;;;1.20;0.70;;;;;;;19.01;49.20;97706.47;5010225;28;20037;-32
2023/01/16 03:23:24;;;;;;;1.33;0.80;;;;;;;18.99;48.41;97711.38;4991988;28;20013;-28
2023/01/16 03:26:16;;;;;;;1.83;0.63;;;;;;;18.93;48.70;97708.78;5009169;28;20151;-29
2023/01/16 03:28:53;;;;;;;1.25;0.68;;;;;;;18.92;48.88;97700.97;5018536;28;20076;-29
2023/01/16 03:31:44;;;;;;;1.70;0.70;;;;;;;18.97;48.91;97694.63;5026610;28;20056;-28
2023/01/16 03:34:28;;;;;;;1.33;0.45;;;;;;;19.02;48.87;97699.94;4994642;28;20037;-34
2023/01/16 03:36:55;;;;;;;;;;;;;;;18.98;49.24;97688.13;5027142;28;20037;-30
2023/01/16 03:39:24;;;;;;;1.45;0.80;;;;;;;18.97;48.88;97679.19;5025711;28;19921;-29
2023/01/16 03:41:50;;;;;;;1.65;0.60;;;;;;;18.90;47.57;97676.13;5026719;28;20468;-29
2023/01/16 03:44:47;;;;;;;0.57;0.50;;;;;;;18.97;48.96;97679.19;5007544;28;20044;-30
2023/01/16 03:47:18;;;;;;;1.67;0.70;;;;;;;18.98;49.45;97661.84;5024195;28;20095;-27
2023/01/16 03:49:47;;;;;;;1.40;0.60;;;;;;;18.87;48.75;97664.03;5009036;28;20037;-28
2023/01/16 03:52:14;;;;;;;0.63;0.45;;;;;;;18.96;49.08;97666.78;5009394;28;20396;-31
2023/01/16 03:54:48;;;;;;;1.48;0.85;;;;;;;18.97;49.25;97665.66;5026337;28;20037;-27
2023/01/16 03:57:15;;;;;;;;;;;;;;;18.90;49.00;97652.59;4992984;28;20029;-31
2023/01/16 03:59:42;;;;;;;0.80;0.60;;;;;;;18.92;49.19;97654.97;5026650;28;20093;-30
2023/01/16 04:02:12;;;;;;;1.15;0.70;;;;;;;18.90;49.01;97641.78;5027035;28;20109;-30
2023/01/16 04:04:46;;;;;;;0.93;0.60;;;;;;;18.97;49.32;97648.63;5026017;28;20037;-31
2023/01/16 04:07:26;;;;;;;1.60;0.80;;;;;;;18.98;49.38;97636.72;5026172;28;20025;-30
2023/01/16 04:09:59;;;;;;;0.50;0.50;;;;;;;18.95;49.56;97643.53;4992289;28;20030;-31
2023/01/16 04:12:29;;;;;;;0.85;0.52;;;;;;;18.91;48.93;97645.25;4993145;28;20255;-30
2023/01/16 04:14:57;;;;;;;0.60;0.60;;;;;;;18.97;49.82;97635.88;5026160;28;20072;-31
2023/01/16 04:17:23;;;;;;;0.93;0.50;;;;;;;18.99;49.61;97644.53;5004069;28;20185;-29
2023/01/16 04:19:48;;;;;;;0.82;0.60;;;;;;;18.98;49.11;97631.28;5025111;28;20060;-30
2023/01/16 04:22:23;;;;;;;1.17;0.60;;;;;;;18.97;48.99;97627.78;5007259;28;20059;-31
2023/01/16 04:24:50;;;;;;;0.50;0.50;;;;;;;18.93;48.72;97633.00;5023421;28;20594;-28
2023/01/16 04:27:19;;;;;;;0.50;0.50;;;;;;;18.95;49.07;97638.94;5024064;28;20035;-31
2023/01/16 04:29:45;;;;;;;1.73;0.65;;;;;;;18.95;48.73;97638.94;5026032;28;20021;-31
2023/01/16 04:32:11;;;;;;;2.38;0.82;;;;;;;19.00;49.37;97639.91;5026453;28;20032;-30
2023/01/16 04:34:36;;;;;;;0.80;0.70;;;;;;;18.98;49.01;97625.88;5026007;28;20049;-28
2023/01/16 04:37:02;;;;;;;1.40;0.75;;;;;;;18.98;49.10;97631.28;5025700;28;20120;-31
2023/01/16 04:39:28;;;;;;;0.63;0.40;;;;;;;18.94;49.06;97617.59;5023421;28;20392;-29
2023/01/16 04:41:53;;;;;;;0.52;0.52;;;;;;;18.95;49.20;97620.00;5026650;28;20476;-31
2023/01/16 04:44:19;;;;;;;0.68;0.50;;;;;;;18.98;49.31;97620.47;5023881;28;20079;-29
2023/01/16 04:46:45;;;;;;;0.77;0.50;;;;;;;18.99;49.13;97616.63;5026230;28;20039;-31
2023/01/16 04:49:10;;;;;;;1.20;0.60;;;;;;;18.95;48.69;97617.28;5025374;28;20072;-32
2023/01/16 04:51:36;;;;;;;1.13;0.70;;;;;;;18.91;49.17;97618.22;5025694;28;20489;-29
2023/01/16 04:54:03;;;;;;;0.63;0.50;;;;;;;18.94;48.93;97615.69;5026024;28;20029;-30
2023/01/16 04:56:29;;;;;;;0.82;0.50;;;;;;;18.93;48.61;97614.06;5025645;28;20037;-28
2023/01/16 04:58:55;;;;;;;1.13;0.70;;;;;;;18.94;49.21;97609.47;5007910;28;20021;-29
2023/01/16 05:01:20;;;;;;;1.00;0.50;;;;;;;18.98;49.15;97612.34;5024920;28;20423;-29
2023/01/16 05:03:46;;;;;;;0.55;0.52;;;;;;;18.85;48.52;97612.13;5025921;28;20288;-31
2023/01/16 05:06:12;;;;;;;0.50;0.45;;;;;;;18.96;49.17;97615.38;5025316;28;20095;-30
2023/01/16 05:08:37;;;;;;;1.65;0.40;;;;;;;18.98;49.30;97599.63;5025321;28;20040;-30
2023/01/16 05:11:03;;;;;;;0.73;0.40;;;;;;;18.96;49.31;97601.84;5024960;28;20353;-30
2023/01/16 05:13:29;;;;;;;0.73;0.70;;;;;;;18.91;48.94;97605.47;5025339;28;20087;-33
2023/01/16 05:15:55;;;;;;;0.95;0.60;;;;;;;18.95;49.29;97611.88;5025358;28;20400;-29
2023/01/16 05:18:21;;;;;;;0.50;0.40;;;;;;;18.99;48.69;97606.63;5025472;28;20029;-29
2023/01/16 05:20:46;;;;;;;1.38;0.75;;;;;;;18.95;48.86;97600.22;5024551;28;20404;-28
2023/01/16 05:23:12;;;;;;;0.73;0.60;;;;;;;18.95;49.49;97602.94;5024684;28;20048;-27
2023/01/16 05:25:38;;;;;;;1.67;0.75;;;;;;;18.90;48.91;97601.19;5024372;28;20512;-28
2023/01/16 05:28:04;;;;;;;0.63;0.50;;;;;;;18.91;49.32;97594.63;5024579;28;20029;-30
2023/01/16 05:30:30;;;;;;;0.73;0.57;;;;;;;18.97;49.41;97591.81;5024694;28;20043;-28
2023/01/16 05:32:55;;;;;;;1.17;0.70;;;;;;;18.95;49.22;97590.22;5024386;28;20532;-27
2023/01/16 05:35:21;;;;;;;0.52;0.52;;;;;;;18.96;49.29;97596.44;5023059;28;20394;-27
2023/01/16 05:37:47;;;;;;;0.65;0.50;;;;;;;18.92;49.25;97590.84;5024489;28;20025;-30
2023/01/16 05:40:13;;;;;;;0.55;0.52;;;;;;;18.94;49.30;97585.91;5023154;28;20120;-29
2023/01/16 05:42:38;;;;;;;0.50;0.50;;;;;;;18.96;49.34;97599.13;5025255;28;20029;-27
2023/01/16 05:45:04;;;;;;;1.30;0.50;;;;;;;18.92;49.19;97581.91;5005390;28;20055;-30
2023/01/16 05:47:30;;;;;;;2.35;0.68;;;;;;;18.87;48.75;97585.56;5023875;28;20021;-30
2023/01/16 05:49:58;;;;;;;0.85;0.60;;;;;;;18.95;49.18;97563.16;5024280;28;20040;-30
2023/01/16 05:52:25;;;;;;;0.57;0.50;;;;;;;18.94;49.23;97583.19;5024996;28;20087;-28
2023/01/16 05:54:51;;;;;;;1.13;0.60;;;;;;;18.96;49.18;97577.47;5024693;28;20030;-28
2023/01/16 05:57:17;;;;;;;0.70;0.52;;;;;;;18.97;49.37;97581.75;5023415;28;20095;-28
2023/01/16 05:59:45;;;;;;;0.85;0.55;;;;;;;18.93;49.39;97578.88;5023233;28;20036;-28
2023/01/16 06:02:11;;;;;;;0.70;0.60;;;;;;;18.91;49.11;97583.81;5022998;28;20064;-32
2023/01/16 06:04:37;;;;;;;0.80;0.63;;;;;;;18.85;48.54;97574.25;5024452;28;20029;-28
2023/01/16 06:07:03;;;;;;;0.82;0.70;;;;;;;18.85;49.00;97582.38;5024272;28;20566;-29
2023/01/16 06:09:28;;;;;;;1.70;0.60;;;;;;;18.97;49.23;97580.97;5023759;28;20148;-29
2023/01/16 06:11:54;;;;;;;0.85;0.50;;;;;;;18.92;49.25;97574.59;5021906;28;20419;-28
2023/01/16 06:14:20;;;;;;;1.70;0.65;;;;;;;18.86;48.28;97570.41;5024471;28;20089;-29
2023/01/16 06:16:45;;;;;;;0.93;0.50;;;;;;;18.88;48.88;97564.69;5023530;28;20029;-28
2023/01/16 06:19:11;;;;;;;0.52;0.50;;;;;;;18.93;49.25;97572.69;5023145;28;20139;-28
2023/01/16 06:21:37;;;;;;;1.73;0.70;;;;;;;18.94;48.96;97560.75;5005617;28;20025;-29
2023/01/16 06:24:03;;;;;;;0.98;0.60;;;;;;;18.93;49.39;97570.78;5006478;28;20036;-30
2023/01/16 06:26:28;;;;;;;0.68;0.45;;;;;;;18.96;49.30;97574.78;5023529;28;20708;-30
2023/01/16 06:28:57;;;;;;;0.95;0.68;;;;;;;18.87;48.53;97574.72;5023691;28;20374;-27
2023/01/16 06:31:23;;;;;;;0.75;0.60;;;;;;;18.91;49.43;97583.81;5023198;28;20060;-27
2023/01/16 06:33:48;;;;;;;0.80;0.60;;;;;;;18.92;49.40;97577.31;5022307;28;20025;-30
2023/01/16 06:36:14;;;;;;;1.27;0.60;;;;;;;18.91;49.07;97577.63;5023560;28;20139;-28
2023/01/16 06:38:40;;;;;;;0.52;0.50;;;;;;;18.92;49.29;97574.59;5023982;28;20318;-27
2023/01/16 06:41:06;;;;;;;0.90;0.55;;;;;;;18.92;49.07;97571.91;5020705;28;20034;-27
2023/01/16 06:43:31;;;;;;;1.10;0.70;;;;;;;18.88;49.18;97581.72;5005040;28;20184;-28
2023/01/16 06:45:57;;;;;;;0.45;0.45;;;;;;;18.94;49.23;97585.91;5023332;28;20104;-30
2023/01/16 06:48:23;;;;;;;0.60;0.60;;;;;;;18.83;49.26;97581.84;5023371;28;20159;-30
2023/01/16 06:50:49;;;;;;;0.65;0.45;;;;;;;18.88;48.34;97573.59;5006124;28;20868;-31
2023/01/16 06:53:14;;;;;;;1.58;0.70;;;;;;;18.89;49.25;97579.84;5021502;28;20021;-28
2023/01/16 06:55:40;;;;;;;0.50;0.50;;;;;;;18.95;49.55;97575.88;5024003;28;20021;-30
2023/01/16 06:58:06;;;;;;;1.77;0.60;;;;;;;18.92;49.24;97574.59;5023116;28;20285;-27
2023/01/16 07:00:33;;;;;;;0.70;0.50;;;;;;;18.94;49.25;97577.00;5006210;28;20079;-29
2023/01/16 07:03:01;;;;;;;0.68;0.50;;;;;;;18.89;48.98;97580.63;4989346;28;20116;-34
2023/01/16 07:05:27;;;;;;;1.42;0.60;;;;;;;18.87;48.80;97580.16;5005850;28;20025;-31
2023/01/16 07:07:53;;;;;;;0.50;0.50;;;;;;;18.92;49.24;97585.44;5005411;28;20060;-33
2023/01/16 07:10:21;;;;;;;1.20;0.70;;;;;;;18.94;49.34;97577.78;5023905;28;20021;-29
2023/01/16 07:12:48;;;;;;;0.50;0.40;;;;;;;18.91;49.15;97572.19;5023540;28;20488;-28
2023/01/16 07:23:32;;;;;;;0.82;0.52;;;;;;;18.95;49.30;97582.09;5008780;28;20064;-30
2023/01/16 07:25:59;;;;;;;1.52;0.68;;;;;;;18.94;49.14;97566.19;5023329;28;20029;-31
2023/01/16 07:28:25;;;;;;;1.05;0.50;;;;;;;18.88;49.25;97578.22;5022876;28;20085;-29
2023/01/16 07:30:51;;;;;;;0.57;0.47;;;;;;;18.94;49.20;97572.38;5023532;28;20136;-31
2023/01/16 07:33:16;;;;;;;0.60;0.40;;;;;;;18.93;49.04;97568.06;5008452;28;20037;-29
2023/01/16 07:35:43;;;;;;;0.50;0.50;;;;;;;18.89;48.81;97558.97;5023340;28;20107;-28
2023/01/16 07:38:09;;;;;;;0.75;0.52;;;;;;;18.91;48.79;97573.00;5022900;28;20041;-29
2023/01/16 07:40:34;;;;;;;0.80;0.47;;;;;;;18.87;48.32;97572.03;5023988;28;20108;-29
2023/01/16 07:43:00;;;;;;;0.52;0.47;;;;;;;18.85;48.57;97574.25;5005566;28;20088;-29
2023/01/16 07:45:26;;;;;;;0.43;0.30;;;;;;;18.95;49.07;97568.56;5020546;28;20029;-27
2023/01/16 07:47:51;;;;;;;1.02;0.57;;;;;;;18.97;48.99;97580.97;5022001;28;20032;-30
2023/01/16 07:50:17;;;;;;;0.65;0.40;;;;;;;18.97;49.02;97572.84;5023449;28;20028;-31
2023/01/16 07:52:44;;;;;;;1.15;0.45;;;;;;;18.93;48.95;97573.47;5005695;28;20400;-29
2023/01/16 07:55:09;;;;;;;0.70;0.50;;;;;;;18.91;48.58;97578.41;5022447;28;20028;-26
2023/01/16 07:57:36;;;;;;;0.77;0.63;;;;;;;18.92;49.33;97569.19;5026271;28;20041;-28
2023/01/16 08:00:04;;;;;;;0.50;0.50;;;;;;;18.95;49.35;97565.03;5026672;28;20392;-27
2023/01/16 08:02:30;;;;;;;0.52;0.50;;;;;;;18.96;49.05;97563.94;5026409;28;20030;-31
2023/01/16 08:04:55;;;;;;;1.00;0.43;;;;;;;18.95;49.25;97573.16;5009703;28;20033;-30
2023/01/16 08:07:21;;;;;;;0.40;0.40;;;;;;;18.93;48.61;97564.56;5025487;28;20022;-32
2023/01/16 08:09:47;;;;;;;0.45;0.40;;;;;;;18.97;49.03;97570.16;5026991;28;20035;-30
2023/01/16 08:12:12;;;;;;;1.08;0.50;;;;;;;18.97;49.30;97559.31;5026363;28;20112;-26
2023/01/16 08:14:38;;;;;;;3.97;0.50;;;;;;;-145.56;100.00;64911.31;5025978;28;20045;-27
2023/01/16 08:17:05;;;;;;;1.00;0.50;;;;;;;-145.56;100.00;64911.31;5025633;28;20060;-28
2023/01/16 08:19:31;;;;;;;0.60;0.40;;;;;;;-145.56;100.00;64911.31;5025680;28;20082;-30
2023/01/16 08:21:56;;;;;;;0.50;0.50;;;;;;;-145.56;100.00;64911.31;5025693;28;20029;-30
2023/01/16 08:24:25;;;;;;;0.90;0.60;;;;;;;-145.56;100.00;64911.31;5025892;28;20030;-30
2023/01/16 08:26:51;;;;;;;0.38;0.30;;;;;;;-145.56;100.00;64911.31;5026262;28;20285;-29
2023/01/16 08:29:17;;;;;;;0.40;0.40;;;;;;;-145.56;100.00;64911.31;5025102;28;20100;-32
2023/01/16 08:31:42;;;;;;;0.63;0.50;;;;;;;-145.56;100.00;64911.31;5026267;28;20461;-31
2023/01/16 08:34:08;;;;;;;0.70;0.50;;;;;;;-145.56;100.00;64911.31;5025665;28;20017;-30
2023/01/16 08:36:34;;;;;;;1.13;0.50;;;;;;;-145.56;100.00;64911.31;5025759;28;20041;-28
2023/01/16 08:39:00;;;;;;;0.70;0.50;;;;;;;-145.56;100.00;64911.31;5025940;28;20029;-31
2023/01/16 08:52:35;;;;;;;0.63;0.50;;;;;;;-145.56;100.00;64911.31;4995623;28;20045;-30
2023/01/16 08:55:01;;;;;;;0.93;0.50;;;;;;;-145.56;100.00;64911.31;5008014;28;20492;-28
2023/01/16 08:57:27;;;;;;;0.60;0.45;;;;;;;-145.56;100.00;64911.31;5025755;28;20080;-28
2023/01/16 08:59:53;;;;;;;0.50;0.50;;;;;;;-145.56;100.00;64911.31;5025420;28;20029;-30
2023/01/16 09:02:19;;;;;;;0.30;0.30;;;;;;;-145.56;100.00;64911.31;5025930;28;20037;-30
2023/01/16 09:04:45;;;;;;;0.73;0.40;;;;;;;-145.56;100.00;64911.31;5007661;28;20040;-28
2023/01/16 09:07:11;;;;;;;0.38;0.38;;;;;;;-145.56;100.00;64911.31;5024730;28;20061;-31
2023/01/16 09:09:36;;;;;;;0.50;0.30;;;;;;;-145.56;100.00;64911.31;5025415;28;20373;-28
2023/01/16 09:14:46;;;;;;;0.40;0.40;;;;;;;-145.56;100.00;64911.31;5026121;28;20087;-31
2023/01/16 09:17:12;;;;;;;0.77;0.40;;;;;;;-145.56;100.00;64911.31;5025076;28;20033;-29
2023/01/16 09:19:38;;;;;;;0.60;0.40;;;;;;;-145.56;100.00;64911.31;5025633;28;20033;-29
2023/01/16 09:22:07;;;;;;;0.30;0.30;;;;;;;-145.56;100.00;64911.31;5026152;28;20044;-29
2023/01/16 09:24:33;;;;;;;0.50;0.45;;;;;;;-145.56;100.00;64911.31;5025972;28;20025;-29
2023/01/16 09:27:00;;;;;;;0.50;0.40;;;;;;;-145.56;100.00;64911.31;5025967;28;20025;-30
2023/01/16 09:29:26;;;;;;;0.80;0.60;;;;;;;-145.56;100.00;64911.31;5006855;28;20067;-29
2023/01/16 09:31:52;;;;;;;0.40;0.40;;;;;;;-145.56;100.00;64911.31;5024377;28;20022;-30
2023/01/16 09:34:18;;;;;;;0.30;0.30;;;;;;;-145.56;100.00;64911.31;5024506;28;20076;-30
2023/01/16 09:36:44;;;;;;;0.50;0.50;;;;;;;-145.56;100.00;64911.31;5023506;28;20444;-27
2023/01/16 09:39:09;;;;;;;0.40;0.40;;;;;;;-145.56;100.00;64911.31;5024494;28;20171;-31
2023/01/16 09:44:23;;;;;;;0.77;0.60;;;;;;;-145.56;100.00;64911.31;4992335;28;20523;-32
2023/01/16 09:46:50;;;;;;;0.77;0.60;;;;;;;-145.56;100.00;64911.31;5023473;28;20025;-29
2023/01/16 09:49:24;;;;;;;0.47;0.40;;;;;;;-145.56;100.00;64911.31;5003435;28;20521;-28
2023/01/16 10:00:11;;;;;;;0.55;0.40;;;;;;;-145.56;100.00;64911.31;4989474;28;20076;-29
2023/01/16 10:02:37;;;;;;;0.40;0.40;;;;;;;-145.56;100.00;64911.31;5003495;28;20061;-29
2023/01/16 10:05:04;;;;;;;0.40;0.40;;;;;;;-145.56;100.00;64911.31;5021076;28;20033;-31
2023/01/16 10:07:35;;;;;;;0.70;0.50;;;;;;;-145.56;100.00;64911.31;5020535;28;20120;-28
2023/01/16 10:10:38;;;;;;;0.50;0.40;;;;;;;-145.56;100.00;64911.31;5024351;28;20033;-28
2023/01/16 10:13:13;;;;;;;0.85;0.45;;;;;;;-145.56;100.00;64911.31;5022699;28;20063;-29
2023/01/16 10:16:06;;;;;;;0.73;0.38;;;;;;;-145.56;100.00;64911.31;5023560;28;20069;-28
2023/01/16 10:18:44;;;;;;;0.40;0.40;;;;;;;-145.56;100.00;64911.31;4987009;28;20037;-29
2023/01/16 10:21:39;;;;;;;0.70;0.43;;;;;;;-145.56;100.00;64911.31;5021353;28;20044;-27
2023/01/16 10:24:23;;;;;;;0.47;0.40;;;;;;;-145.56;100.00;64911.31;5038612;28;20388;-30
2023/01/16 10:27:00;;;;;;;;;;;;;;;-145.56;100.00;64911.31;5024275;28;20029;-29
2023/01/16 10:30:01;;;;;;;0.50;0.50;;;;;;;-145.56;100.00;64911.31;5010269;28;20377;-31
2023/01/16 10:32:29;;;;;;;0.38;0.38;;;;;;;-145.56;100.00;64911.31;5013333;28;20510;-31
2023/01/16 10:35:13;;;;;;;0.45;0.30;;;;;;;-145.56;100.00;64911.31;5005936;28;20037;-29
2023/01/16 10:37:42;;;;;;;0.47;0.40;;;;;;;-145.56;100.00;64911.31;5023346;28;20080;-29
2023/01/16 10:40:17;;;;;;;0.30;0.30;;;;;;;-145.56;100.00;64911.31;5023735;28;20041;-30
2023/01/16 10:50:59;;;;;;;0.52;0.38;;;;;;;-145.56;100.00;64911.31;5023855;28;20065;-29
2023/01/16 10:53:25;;;;;;;0.65;0.40;;;;;;;-145.56;100.00;64911.31;5021865;28;20335;-29
2023/01/16 10:55:52;;;;;;;1.25;0.60;;;;;;;-145.56;100.00;64911.31;5023046;28;20021;-29
2023/01/16 10:58:35;;;;;;;0.57;0.40;;;;;;;-145.56;100.00;64911.31;5022758;28;20025;-31
2023/01/16 11:01:14;;;;;;;0.45;0.45;;;;;;;-145.56;100.00;64911.31;5022688;28;20037;-30
2023/01/16 11:03:41;;;;;;;1.02;0.45;;;;;;;-145.56;100.00;64911.31;5022317;28;20037;-29
2023/01/16 11:06:20;;;;;;;0.30;0.30;;;;;;;-145.56;100.00;64911.31;5006115;28;20108;-30
2023/01/16 11:08:59;;;;;;;0.70;0.45;;;;;;;-145.56;100.00;64911.31;5006660;28;20033;-28
2023/01/16 11:20:29;;;;;;;0.40;0.30;;;;;;;-145.56;100.00;64911.31;5024033;28;20044;-27
2023/01/16 11:22:59;;;;;;;1.48;0.45;;;;;;;-145.56;100.00;64911.31;5006632;28;20094;-27
2023/01/16 11:25:28;;;;;;;0.57;0.43;;;;;;;-145.56;100.00;64911.31;5023017;28;20407;-29
2023/01/16 11:27:55;;;;;;;0.60;0.47;;;;;;;-145.56;100.00;64911.31;5006753;28;20033;-30
2023/01/16 11:30:26;;;;;;;1.17;0.60;;;;;;;-145.56;100.00;64911.31;5007701;28;20036;-29
2023/01/16 11:32:52;;;;;;;1.65;0.57;;;;;;;-145.56;100.00;64911.31;5010615;28;20025;-31
2023/01/16 11:35:18;;;;;;;0.93;0.40;;;;;;;-145.56;100.00;64911.31;5009597;28;20837;-30
2023/01/16 11:37:44;;;;;;;1.30;0.47;;;;;;;-145.56;100.00;64911.31;5009924;28;20045;-28
2023/01/16 11:40:29;;;;;;;0.35;0.30;;;;;;;-145.56;100.00;64911.31;5009849;28;20021;-32
2023/01/16 11:46:03;;;;;;;0.95;0.50;;;;;;;-145.56;100.00;64911.31;5026431;28;20107;-28
2023/01/16 11:48:44;;;;;;;0.57;0.32;;;;;;;-145.56;100.00;64911.31;5027879;28;20104;-30
2023/01/16 11:51:15;;;;;;;0.40;0.40;;;;;;;-145.56;100.00;64911.31;5026873;28;20684;-30
2023/01/16 11:53:42;;;;;;;0.30;0.30;;;;;;;-145.56;100.00;64911.31;5027749;28;20045;-28
2023/01/16 11:56:46;;;;;;;0.80;0.50;;;;;;;-145.56;100.00;64911.31;5010079;28;20382;-31
2023/01/16 11:59:26;;;;;;;1.00;0.52;;;;;;;-145.56;100.00;64911.31;4988085;28;20496;-28
2023/01/16 12:02:21;;;;;;;0.55;0.35;;;;;;;-145.56;100.00;64911.31;5024609;28;20536;-30
2023/01/16 12:08:23;;;;;;;0.65;0.30;;;;;;;-145.56;100.00;64911.31;5027759;28;20044;-29
2023/01/16 12:11:00;;;;;;;0.90;0.40;;;;;;;-145.56;100.00;64911.31;5027301;28;20041;-30
2023/01/16 12:16:24;;;;;;;1.10;0.32;;;;;;;-145.56;100.00;64911.31;5027065;28;20025;-30
2023/01/16 12:19:30;;;;;;;1.25;0.30;;;;;;;-145.56;100.00;64911.31;5010223;28;20154;-27
2023/01/16 12:22:32;;;;;;;0.80;0.45;;;;;;;-145.56;100.00;64911.31;5024529;28;20049;-27
2023/01/16 12:25:16;;;;;;;0.30;0.30;;;;;;;-145.56;100.00;64911.31;5011817;28;20037;-32
2023/01/16 12:27:56;;;;;;;0.30;0.30;;;;;;;-145.56;100.00;64911.31;5010217;28;20091;-28
2023/01/16 12:30:45;;;;;;;0.82;0.63;;;;;;;-145.56;100.00;64911.31;5027381;28;20674;-30
2023/01/16 12:33:26;;;;;;;0.38;0.30;;;;;;;-145.56;100.00;64911.31;5026142;28;20033;-29
2023/01/16 12:36:13;;;;;;;0.88;0.80;;;;;;;-145.56;100.00;64911.31;5027132;28;20100;-27
2023/01/16 12:39:04;;;;;;;2.10;0.60;;;;;;;-145.56;100.00;64911.31;5026762;28;20041;-27
2023/01/16 12:44:28;;;;;;;1.70;0.40;;;;;;;-145.56;100.00;64911.31;5023680;28;20091;-32
2023/01/16 12:47:18;;;;;;;0.55;0.40;;;;;;;-145.56;100.00;64911.31;5026105;28;20025;-32